Terminal Aerodrome Forecast
Issued by NWS Memphis, TN

Home | Current Version | Previous Version | Text Only | Print | Product List | Glossary On
Versions: 1 2 3 4 5 6 7 8 9 10 11 12 13 14
000
FTUS44 KMEG 270520
TAFMKL
TAF
KMKL 270520Z 2706/2806 VRB02KT P6SM SCT250
      TEMPO 2709/2713 2SM BR BKN010
     FM271700 09005KT P6SM VCTS SCT035CB BKN250
     FM280200 00000KT P6SM BKN250=

USA.gov is the U.S. government's official web portal to all federal, state and local government web resources and services.